createdAt,value
2022-12-11T00:00:22.786Z,4.94
2022-12-11T00:03:16.312Z,4.97
2022-12-11T00:05:49.479Z,4.95
2022-12-11T00:08:21.667Z,4.98
2022-12-11T00:10:54.220Z,4.98
2022-12-11T00:13:26.491Z,4.98
2022-12-11T00:16:01.010Z,4.97
2022-12-11T00:18:33.279Z,4.96
2022-12-11T00:21:07.088Z,4.94
2022-12-11T00:23:39.560Z,4.92
2022-12-11T00:26:15.004Z,4.91
2022-12-11T00:28:47.980Z,4.89
2022-12-11T00:31:22.721Z,4.88
2022-12-11T00:33:55.642Z,4.86
2022-12-11T00:36:29.564Z,4.85
2022-12-11T00:39:05.367Z,4.83
2022-12-11T00:41:38.080Z,4.80
2022-12-11T00:44:10.414Z,4.79
2022-12-11T00:46:43.283Z,4.78
2022-12-11T00:49:15.264Z,4.78
2022-12-11T00:51:47.838Z,4.77
2022-12-11T00:54:21.337Z,4.76
2022-12-11T00:56:53.299Z,4.75
2022-12-11T00:59:25.575Z,4.74
2022-12-11T01:01:57.840Z,4.72
2022-12-11T01:04:29.800Z,4.72
2022-12-11T01:07:02.686Z,4.73
2022-12-11T01:09:52.361Z,4.82
2022-12-11T01:12:24.938Z,4.87
2022-12-11T01:14:57.310Z,4.91
2022-12-11T01:17:29.687Z,4.95
2022-12-11T01:20:02.061Z,4.98
2022-12-11T01:22:34.436Z,4.98
2022-12-11T01:25:07.350Z,4.98
2022-12-11T01:27:39.890Z,4.98
2022-12-11T01:30:14.491Z,4.97
2022-12-11T01:32:48.088Z,4.96
2022-12-11T01:35:20.893Z,4.95
2022-12-11T01:37:53.368Z,4.91
2022-12-11T01:40:26.276Z,4.92
2022-12-11T01:42:58.624Z,4.90
2022-12-11T01:45:44.822Z,4.89
2022-12-11T01:48:22.620Z,4.87
2022-12-11T01:50:57.665Z,4.84
2022-12-11T01:53:32.892Z,4.83
2022-12-11T01:56:06.017Z,4.82
2022-12-11T01:58:43.373Z,4.80
2022-12-11T02:01:21.720Z,4.79
2022-12-11T02:03:54.465Z,4.78
2022-12-11T02:06:40.424Z,4.75
2022-12-11T02:09:16.002Z,4.74
2022-12-11T02:11:59.842Z,4.72
2022-12-11T02:14:40.617Z,4.71
2022-12-11T02:17:17.695Z,4.70
2022-12-11T02:20:04.708Z,4.68
2022-12-11T02:22:56.556Z,4.67
2022-12-11T02:25:34.167Z,4.67
2022-12-11T02:28:18.809Z,4.66
2022-12-11T02:30:56.796Z,4.69
2022-12-11T02:33:35.416Z,4.71
2022-12-11T02:36:11.111Z,4.80
2022-12-11T02:38:47.021Z,4.85
2022-12-11T02:41:19.187Z,4.88
2022-12-11T02:43:53.811Z,4.90
2022-12-11T02:46:27.716Z,4.92
2022-12-11T02:49:01.307Z,4.94
2022-12-11T02:51:39.022Z,4.94
2022-12-11T02:54:15.689Z,4.93
2022-12-11T02:56:52.054Z,4.91
2022-12-11T02:59:28.625Z,4.90
2022-12-11T03:02:01.393Z,4.87
2022-12-11T03:04:35.314Z,4.85
2022-12-11T03:07:13.426Z,4.83
2022-12-11T03:09:48.557Z,4.82
2022-12-11T03:12:25.436Z,4.79
2022-12-11T03:15:00.889Z,4.75
2022-12-11T03:17:37.249Z,4.76
2022-12-11T03:20:21.660Z,4.75
2022-12-11T03:23:00.010Z,4.73
2022-12-11T03:25:37.812Z,4.70
2022-12-11T03:28:15.202Z,4.69
2022-12-11T03:30:50.649Z,4.66
2022-12-11T03:33:26.907Z,4.64
2022-12-11T03:36:02.454Z,4.61
2022-12-11T03:38:38.520Z,4.60
2022-12-11T03:41:13.138Z,4.58
2022-12-11T03:43:45.831Z,4.57
2022-12-11T03:46:20.165Z,4.55
2022-12-11T03:48:53.734Z,4.54
2022-12-11T03:51:26.926Z,4.53
2022-12-11T03:54:00.834Z,4.53
2022-12-11T03:56:36.995Z,4.53
2022-12-11T03:59:10.005Z,4.53
2022-12-11T04:01:44.004Z,4.52
2022-12-11T04:04:16.791Z,4.51
2022-12-11T04:06:49.460Z,4.50
2022-12-11T04:09:22.642Z,4.50
2022-12-11T04:11:54.891Z,4.59
2022-12-11T04:14:45.000Z,4.64
2022-12-11T04:17:37.611Z,4.67
2022-12-11T04:20:29.802Z,4.70
2022-12-11T04:23:19.972Z,4.76
2022-12-11T04:25:52.650Z,4.78
2022-12-11T04:28:25.124Z,4.79
2022-12-11T04:30:57.544Z,4.78
2022-12-11T04:33:30.635Z,4.76
2022-12-11T04:36:03.066Z,4.75
2022-12-11T04:38:35.944Z,4.73
2022-12-11T04:41:10.569Z,4.71
2022-12-11T04:43:45.346Z,4.69
2022-12-11T04:46:21.426Z,4.68
2022-12-11T04:48:57.568Z,4.66
2022-12-11T04:51:31.014Z,4.64
2022-12-11T04:54:03.795Z,4.62
2022-12-11T04:56:36.064Z,4.60
2022-12-11T04:59:08.634Z,4.58
2022-12-11T05:01:40.780Z,4.56
2022-12-11T05:04:13.387Z,4.54
2022-12-11T05:06:45.450Z,4.52
2022-12-11T05:09:17.722Z,4.50
2022-12-11T05:11:49.989Z,4.48
2022-12-11T05:14:22.673Z,4.46
2022-12-11T05:16:55.044Z,4.45
2022-12-11T05:19:27.924Z,4.44
2022-12-11T05:21:59.992Z,4.45
2022-12-11T05:24:32.055Z,4.45
2022-12-11T05:27:04.152Z,4.43
2022-12-11T05:29:37.618Z,4.42
2022-12-11T05:32:10.915Z,4.42
2022-12-11T05:34:43.387Z,4.42
2022-12-11T05:37:15.559Z,4.41
2022-12-11T05:39:47.722Z,4.39
2022-12-11T05:42:22.868Z,4.37
2022-12-11T05:44:59.426Z,4.37
2022-12-11T05:47:31.938Z,4.36
2022-12-11T05:50:04.581Z,4.35
2022-12-11T05:52:36.953Z,4.34
2022-12-11T05:55:10.745Z,4.32
2022-12-11T05:57:43.232Z,4.30
2022-12-11T06:00:16.243Z,4.28
2022-12-11T06:02:48.649Z,4.26
2022-12-11T06:05:21.065Z,4.26
2022-12-11T06:07:53.347Z,4.28
2022-12-11T06:10:25.606Z,4.39
2022-12-11T06:12:57.771Z,4.43
2022-12-11T06:15:29.947Z,4.46
2022-12-11T06:18:02.106Z,4.51
2022-12-11T06:20:36.454Z,4.52
2022-12-11T06:23:10.133Z,4.51
2022-12-11T06:25:42.906Z,4.52
2022-12-11T06:28:15.383Z,4.53
2022-12-11T06:30:47.449Z,4.52
2022-12-11T06:33:19.718Z,4.50
2022-12-11T06:35:52.298Z,4.49
2022-12-11T06:38:24.973Z,4.46
2022-12-11T06:40:59.599Z,4.45
2022-12-11T06:43:32.076Z,4.43
2022-12-11T06:46:06.513Z,4.42
2022-12-11T06:48:39.236Z,4.39
2022-12-11T06:51:13.592Z,4.35
2022-12-11T06:53:46.479Z,4.33
2022-12-11T06:56:18.647Z,4.32
2022-12-11T06:58:52.253Z,4.31
2022-12-11T07:01:27.774Z,4.29
2022-12-11T07:04:01.800Z,4.27
2022-12-11T07:06:34.072Z,4.24
2022-12-11T07:09:07.917Z,4.20
2022-12-11T07:11:40.043Z,4.19
2022-12-11T07:14:12.824Z,4.17
2022-12-11T07:16:45.118Z,4.15
2022-12-11T07:19:17.874Z,4.14
2022-12-11T07:21:50.043Z,4.14
2022-12-11T07:24:22.313Z,4.12
2022-12-11T07:26:54.374Z,4.09
2022-12-11T07:29:26.646Z,4.08
2022-12-11T07:31:59.830Z,4.05
2022-12-11T07:34:32.620Z,3.97
2022-12-11T07:37:05.018Z,3.89
2022-12-11T07:39:37.609Z,3.82
2022-12-11T07:42:09.941Z,3.77
2022-12-11T07:44:42.211Z,3.73
2022-12-11T07:47:14.889Z,3.65
2022-12-11T07:49:47.171Z,3.56
2022-12-11T07:52:20.163Z,3.44
2022-12-11T07:54:52.320Z,3.34
2022-12-11T07:57:24.381Z,3.23
2022-12-11T07:59:56.546Z,3.15
2022-12-11T08:02:32.622Z,3.09
2022-12-11T08:05:10.916Z,3.07
2022-12-11T08:07:43.446Z,3.02
2022-12-11T08:10:15.964Z,2.97
2022-12-11T08:12:48.234Z,2.93
2022-12-11T08:15:20.792Z,2.92
2022-12-11T08:17:53.285Z,2.91
2022-12-11T08:20:25.761Z,2.91
2022-12-11T08:22:59.286Z,2.92
2022-12-11T08:25:31.937Z,2.87
2022-12-11T08:28:04.615Z,2.90
2022-12-11T08:30:40.306Z,2.87
2022-12-11T08:33:12.845Z,2.87
2022-12-11T08:35:47.059Z,2.99
2022-12-11T08:38:24.988Z,3.09
2022-12-11T08:40:57.844Z,3.13
2022-12-11T08:43:30.010Z,3.15
2022-12-11T08:46:02.194Z,3.20
2022-12-11T08:48:34.857Z,3.26
2022-12-11T08:51:08.921Z,3.33
2022-12-11T08:53:41.048Z,3.33
2022-12-11T08:56:15.868Z,3.38
2022-12-11T08:58:48.854Z,3.36
2022-12-11T09:01:23.972Z,3.35
2022-12-11T09:03:57.797Z,3.35
2022-12-11T09:06:31.904Z,3.38
2022-12-11T09:09:04.998Z,3.38
2022-12-11T09:11:38.289Z,3.38
2022-12-11T09:14:11.291Z,3.38
2022-12-11T09:16:43.777Z,3.39
2022-12-11T09:19:18.167Z,3.40
2022-12-11T09:21:50.438Z,3.37
2022-12-11T09:24:22.721Z,3.38
2022-12-11T09:26:55.491Z,3.39
2022-12-11T09:29:27.763Z,3.39
2022-12-11T09:32:00.847Z,3.38
2022-12-11T09:34:33.430Z,3.36
2022-12-11T09:37:05.490Z,3.33
2022-12-11T09:39:37.861Z,3.28
2022-12-11T09:42:16.171Z,3.25
2022-12-11T09:44:52.817Z,3.23
2022-12-11T09:47:28.953Z,3.21
2022-12-11T09:50:14.282Z,3.20
2022-12-11T09:53:02.729Z,3.17
2022-12-11T09:55:42.178Z,3.07
2022-12-11T09:58:22.150Z,3.05
2022-12-11T10:01:00.428Z,3.04
2022-12-11T10:04:04.749Z,3.06
2022-12-11T10:06:43.270Z,3.07
2022-12-11T10:09:24.653Z,3.02
2022-12-11T10:12:07.260Z,3.00
2022-12-11T10:14:57.122Z,3.03
2022-12-11T10:17:33.137Z,3.06
2022-12-11T10:20:23.837Z,3.08
2022-12-11T10:22:57.193Z,3.05
2022-12-11T10:25:32.539Z,3.03
2022-12-11T10:28:14.583Z,3.01
2022-12-11T10:30:58.950Z,2.89
2022-12-11T10:33:42.221Z,2.87
2022-12-11T10:36:20.511Z,2.92
2022-12-11T10:38:52.672Z,2.94
2022-12-11T10:41:35.001Z,2.97
2022-12-11T10:44:18.637Z,3.01
2022-12-11T10:47:04.841Z,2.94
2022-12-11T10:49:39.931Z,2.99
2022-12-11T10:52:21.455Z,3.08
2022-12-11T10:55:00.586Z,3.12
2022-12-11T10:57:35.527Z,3.16
2022-12-11T11:00:09.897Z,3.16
2022-12-11T11:02:46.392Z,3.12
2022-12-11T11:05:29.324Z,3.12
2022-12-11T11:08:14.597Z,3.12
2022-12-11T11:10:57.831Z,3.09
2022-12-11T11:13:32.772Z,3.10
2022-12-11T11:16:10.026Z,3.06
2022-12-11T11:18:43.645Z,3.08
2022-12-11T11:21:21.996Z,3.10
2022-12-11T11:23:55.526Z,3.07
2022-12-11T11:26:43.905Z,3.07
2022-12-11T11:29:30.104Z,3.10
2022-12-11T11:32:16.911Z,3.11
2022-12-11T11:34:49.385Z,3.08
2022-12-11T11:37:33.841Z,3.08
2022-12-11T11:40:14.850Z,3.10
2022-12-11T11:42:55.378Z,3.13
2022-12-11T11:45:32.770Z,3.12
2022-12-11T11:48:19.375Z,3.09
2022-12-11T11:50:54.100Z,3.08
2022-12-11T11:53:33.146Z,3.09
2022-12-11T11:56:17.686Z,3.10
2022-12-11T11:58:57.689Z,3.06
2022-12-11T12:01:30.933Z,3.08
2022-12-11T12:04:05.657Z,3.02
2022-12-11T12:06:52.057Z,3.00
2022-12-11T12:09:37.604Z,2.97
2022-12-11T12:12:25.464Z,2.87
2022-12-11T12:15:18.427Z,2.81
2022-12-11T12:17:56.590Z,2.83
2022-12-11T12:20:38.843Z,2.84
2022-12-11T12:23:30.723Z,2.85
2022-12-11T12:26:07.851Z,2.78
2022-12-11T12:28:49.341Z,2.73
2022-12-11T12:31:34.083Z,2.73
2022-12-11T12:34:18.247Z,2.72
2022-12-11T12:37:01.271Z,2.74
2022-12-11T12:39:41.083Z,2.70
2022-12-11T12:42:25.488Z,2.72
2022-12-11T12:45:05.047Z,2.75
2022-12-11T12:47:37.995Z,2.73
2022-12-11T12:50:16.922Z,2.76
2022-12-11T12:52:52.397Z,2.85
2022-12-11T12:55:27.370Z,2.91
2022-12-11T12:58:01.514Z,2.95
2022-12-11T13:00:36.901Z,3.00
2022-12-11T13:03:18.405Z,3.03
2022-12-11T13:06:02.283Z,3.00
2022-12-11T13:08:41.289Z,3.01
2022-12-11T13:11:16.756Z,2.97
2022-12-11T13:14:03.321Z,2.95
2022-12-11T13:16:41.656Z,2.88
2022-12-11T13:19:31.961Z,2.83
2022-12-11T13:22:21.745Z,2.75
2022-12-11T13:25:02.120Z,2.61
2022-12-11T13:27:43.800Z,2.59
2022-12-11T13:30:26.870Z,2.53
2022-12-11T13:33:15.572Z,2.40
2022-12-11T13:35:46.819Z,2.35
2022-12-11T13:38:22.465Z,2.27
2022-12-11T13:40:56.995Z,2.17
2022-12-11T13:43:32.840Z,2.12
2022-12-11T13:46:07.011Z,2.10
2022-12-11T13:48:46.702Z,2.01
2022-12-11T13:51:21.395Z,1.95
2022-12-11T13:54:06.262Z,1.93
2022-12-11T13:56:38.767Z,1.92
2022-12-11T13:59:25.791Z,1.80
2022-12-11T14:02:01.910Z,1.72
2022-12-11T14:04:35.639Z,1.68
2022-12-11T14:07:11.908Z,1.66
2022-12-11T14:09:44.790Z,1.69
2022-12-11T14:12:22.797Z,1.63
2022-12-11T14:14:58.863Z,1.54
2022-12-11T14:17:34.313Z,1.56
2022-12-11T14:20:17.523Z,1.53
2022-12-11T14:22:50.322Z,1.58
2022-12-11T14:25:26.159Z,1.58
2022-12-11T14:27:58.842Z,1.55
2022-12-11T14:30:34.285Z,1.60
2022-12-11T14:33:07.680Z,1.62
2022-12-11T14:35:43.634Z,1.64
2022-12-11T14:38:18.056Z,1.73
2022-12-11T14:40:54.729Z,1.79
2022-12-11T14:43:34.986Z,1.74
2022-12-11T14:46:11.126Z,1.70
2022-12-11T14:48:49.456Z,1.75
2022-12-11T14:51:22.851Z,1.78
2022-12-11T14:53:56.864Z,1.71
2022-12-11T14:56:31.201Z,1.73
2022-12-11T14:59:10.401Z,1.73
2022-12-11T15:01:43.530Z,1.76
2022-12-11T15:04:28.262Z,1.76
2022-12-11T15:07:00.759Z,1.69
2022-12-11T15:09:40.833Z,1.73
2022-12-11T15:12:15.724Z,1.81
2022-12-11T15:14:53.010Z,1.73
2022-12-11T15:17:26.919Z,1.69
2022-12-11T15:20:04.825Z,1.62
2022-12-11T15:22:37.864Z,1.59
2022-12-11T15:25:22.223Z,1.55
2022-12-11T15:27:57.104Z,1.50
2022-12-11T15:30:33.258Z,1.49
2022-12-11T15:33:18.938Z,1.46
2022-12-11T15:36:00.030Z,1.39
2022-12-11T15:38:35.112Z,1.39
2022-12-11T15:41:07.974Z,1.38
2022-12-11T15:43:40.814Z,1.34
2022-12-11T15:46:14.128Z,1.36
2022-12-11T15:48:46.277Z,1.35
2022-12-11T15:51:18.648Z,1.34
2022-12-11T15:53:50.917Z,1.34
2022-12-11T15:56:23.505Z,1.45
2022-12-11T15:58:56.992Z,1.49
2022-12-11T16:01:29.520Z,1.54
2022-12-11T16:04:05.217Z,1.59
2022-12-11T16:06:38.204Z,1.62
2022-12-11T16:09:10.374Z,1.63
2022-12-11T16:11:42.437Z,1.61
2022-12-11T16:14:14.809Z,1.65
2022-12-11T16:16:46.979Z,1.80
2022-12-11T16:19:19.758Z,1.94
2022-12-11T16:21:53.365Z,2.05
2022-12-11T16:24:25.731Z,2.15
2022-12-11T16:26:58.204Z,2.22
2022-12-11T16:29:30.701Z,2.28
2022-12-11T16:32:02.846Z,2.32
2022-12-11T16:34:34.910Z,2.36
2022-12-11T16:37:07.737Z,2.40
2022-12-11T16:39:43.146Z,2.42
2022-12-11T16:42:15.509Z,2.45
2022-12-11T16:44:48.495Z,2.48
2022-12-11T16:47:20.969Z,2.51
2022-12-11T16:49:53.441Z,2.54
2022-12-11T16:52:25.757Z,2.57
2022-12-11T16:54:59.722Z,2.59
2022-12-11T16:57:32.198Z,2.61
2022-12-11T17:00:05.695Z,2.63
2022-12-11T17:02:38.225Z,2.64
2022-12-11T17:05:11.244Z,2.64
2022-12-11T17:07:43.634Z,2.66
2022-12-11T17:10:15.719Z,2.66
2022-12-11T17:12:48.171Z,2.67
2022-12-11T17:15:20.951Z,2.68
2022-12-11T17:17:53.121Z,2.69
2022-12-11T17:20:25.831Z,2.69
2022-12-11T17:22:58.171Z,2.70
2022-12-11T17:25:30.234Z,2.71
2022-12-11T17:28:02.501Z,2.70
2022-12-11T17:30:35.082Z,2.70
2022-12-11T17:33:07.560Z,2.70
2022-12-11T17:35:40.851Z,2.71
2022-12-11T17:38:12.917Z,2.71
2022-12-11T17:40:46.205Z,2.70
2022-12-11T17:43:18.381Z,2.71
2022-12-11T17:45:53.315Z,2.71
2022-12-11T17:48:26.199Z,2.72
2022-12-11T17:50:58.976Z,2.73
2022-12-11T17:53:31.347Z,2.75
2022-12-11T17:56:06.380Z,2.75
2022-12-11T17:58:38.857Z,2.76
2022-12-11T18:01:12.662Z,2.77
2022-12-11T18:03:45.177Z,2.77
2022-12-11T18:06:18.840Z,2.78
2022-12-11T18:08:51.826Z,2.78
2022-12-11T18:11:25.061Z,2.78
2022-12-11T18:13:57.693Z,2.79
2022-12-11T18:16:32.161Z,2.79
2022-12-11T18:19:04.280Z,2.79
2022-12-11T18:21:40.855Z,2.78
2022-12-11T18:24:13.535Z,2.78
2022-12-11T18:26:46.348Z,2.78
2022-12-11T18:29:18.889Z,2.78
2022-12-11T18:31:54.641Z,2.79
2022-12-11T18:34:26.807Z,2.79
2022-12-11T18:36:59.489Z,2.79
2022-12-11T18:39:31.858Z,2.80
2022-12-11T18:42:31.605Z,2.80
2022-12-11T18:44:56.468Z,2.80
2022-12-11T18:47:28.845Z,2.80
2022-12-11T18:50:07.126Z,2.80
2022-12-11T18:52:40.138Z,2.79
2022-12-11T18:55:12.767Z,2.79
2022-12-11T18:57:45.793Z,2.79
2022-12-11T19:00:19.908Z,2.78
2022-12-11T19:02:54.161Z,2.79
2022-12-11T19:05:26.482Z,2.78
2022-12-11T19:07:58.595Z,2.79
2022-12-11T19:10:31.454Z,2.79
2022-12-11T19:13:03.827Z,2.78
2022-12-11T19:15:38.651Z,2.79
2022-12-11T19:18:11.134Z,2.80
2022-12-11T19:20:56.747Z,2.80
2022-12-11T19:23:35.329Z,2.81
2022-12-11T19:26:10.766Z,2.83
2022-12-11T19:28:43.863Z,2.81
2022-12-11T19:31:19.355Z,2.81
2022-12-11T19:33:53.320Z,2.83
2022-12-11T19:36:27.736Z,2.82
2022-12-11T19:39:02.210Z,2.82
2022-12-11T19:41:35.451Z,2.82
2022-12-11T19:44:07.780Z,2.83
2022-12-11T19:46:40.319Z,2.83
2022-12-11T19:49:13.589Z,2.84
2022-12-11T19:51:46.255Z,2.85
2022-12-11T19:54:19.328Z,2.85
2022-12-11T19:56:51.631Z,2.84
2022-12-11T19:59:24.000Z,2.85
2022-12-11T20:01:56.313Z,2.83
2022-12-11T20:04:29.873Z,2.83
2022-12-11T20:07:03.268Z,2.82
2022-12-11T20:09:36.562Z,2.81
2022-12-11T20:12:10.555Z,2.81
2022-12-11T20:14:42.610Z,2.80
2022-12-11T20:17:15.475Z,2.80
2022-12-11T20:19:47.687Z,2.81
2022-12-11T20:22:20.162Z,2.80
2022-12-11T20:24:52.334Z,2.82
2022-12-11T20:27:26.244Z,2.81
2022-12-11T20:29:58.411Z,2.82
2022-12-11T20:32:31.344Z,2.83
2022-12-11T20:35:04.374Z,2.82
2022-12-11T20:37:37.363Z,2.81
2022-12-11T20:40:12.355Z,2.80
2022-12-11T20:42:44.570Z,2.80
2022-12-11T20:45:17.446Z,2.78
2022-12-11T20:47:50.232Z,2.78
2022-12-11T20:50:23.119Z,2.79
2022-12-11T20:52:55.587Z,2.79
2022-12-11T20:55:27.757Z,2.79
2022-12-11T20:57:59.925Z,2.78
2022-12-11T21:00:32.202Z,2.78
2022-12-11T21:03:04.257Z,2.80
2022-12-11T21:05:40.939Z,2.80
2022-12-11T21:08:14.209Z,2.81
2022-12-11T21:10:47.516Z,2.81
2022-12-11T21:13:20.125Z,2.79
2022-12-11T21:15:52.914Z,2.79
2022-12-11T21:18:26.169Z,2.79
2022-12-11T21:21:00.180Z,2.80
